createdAt,value
2018-05-12T00:00:40.370Z,82.5
2018-05-12T00:01:41.038Z,82.9
2018-05-12T00:02:41.706Z,82.3
2018-05-12T00:03:42.374Z,82.9
2018-05-12T00:04:43.042Z,82.5
2018-05-12T00:05:43.734Z,82.8
2018-05-12T00:06:44.379Z,82.5
2018-05-12T00:07:45.098Z,82.3
2018-05-12T00:08:45.765Z,82.4
2018-05-12T00:09:46.433Z,82.6
2018-05-12T00:10:47.101Z,82.5
2018-05-12T00:11:47.772Z,82.9
2018-05-12T00:12:48.436Z,83.0
2018-05-12T00:13:49.106Z,82.4
2018-05-12T00:14:49.776Z,82.2
2018-05-12T00:15:50.444Z,82.6
2018-05-12T00:16:51.112Z,82.7
2018-05-12T00:17:51.780Z,82.8
2018-05-12T00:18:52.447Z,83.0
2018-05-12T00:19:53.116Z,83.3
2018-05-12T00:20:53.822Z,83.2
2018-05-12T00:21:54.490Z,83.3
2018-05-12T00:22:55.159Z,83.9
2018-05-12T00:23:55.829Z,83.9
2018-05-12T00:24:56.498Z,83.9
2018-05-12T00:25:57.166Z,84.2
2018-05-12T00:26:57.834Z,84.0
2018-05-12T00:27:58.502Z,83.7
2018-05-12T00:28:59.171Z,83.9
2018-05-12T00:29:59.838Z,83.9
2018-05-12T00:31:00.507Z,83.8
2018-05-12T00:32:01.175Z,83.9
2018-05-12T00:33:01.882Z,83.7
2018-05-12T00:34:02.550Z,84.1
2018-05-12T00:35:03.220Z,84.4
2018-05-12T00:36:03.894Z,84.4
2018-05-12T00:37:04.560Z,84.3
2018-05-12T00:38:05.277Z,84.4
2018-05-12T00:39:05.946Z,84.5
2018-05-12T00:40:06.615Z,84.6
2018-05-12T00:41:07.284Z,84.3
2018-05-12T00:42:07.951Z,84.3
2018-05-12T00:43:08.870Z,84.7
2018-05-12T00:44:09.538Z,84.5
2018-05-12T00:45:10.206Z,84.8
2018-05-12T00:46:10.873Z,84.9
2018-05-12T00:47:11.541Z,84.9
2018-05-12T00:48:12.212Z,84.9
2018-05-12T00:49:12.877Z,84.9
2018-05-12T00:50:13.544Z,84.6
2018-05-12T00:51:14.212Z,84.9
2018-05-12T00:52:14.882Z,85.0
2018-05-12T00:53:15.552Z,84.5
2018-05-12T00:54:16.221Z,84.5
2018-05-12T00:55:16.892Z,84.6
2018-05-12T00:56:17.557Z,84.6
2018-05-12T00:57:18.225Z,84.5
2018-05-12T00:58:18.895Z,84.4
2018-05-12T00:59:19.564Z,84.6
2018-05-12T01:00:20.232Z,84.6
2018-05-12T01:01:20.901Z,84.4
2018-05-12T01:02:21.568Z,84.5
2018-05-12T01:03:22.235Z,84.4
2018-05-12T01:04:22.903Z,84.4
2018-05-12T01:05:23.571Z,84.4
2018-05-12T01:06:24.239Z,84.8
2018-05-12T01:07:24.949Z,84.9
2018-05-12T01:08:25.664Z,84.9
2018-05-12T01:09:26.337Z,84.7
2018-05-12T01:10:27.041Z,85.0
2018-05-12T01:11:27.712Z,84.9
2018-05-12T01:12:28.379Z,85.0
2018-05-12T01:13:29.121Z,85.0
2018-05-12T01:14:29.718Z,84.9
2018-05-12T01:15:30.384Z,85.0
2018-05-12T01:16:31.053Z,84.6
2018-05-12T01:17:31.722Z,85.0
2018-05-12T01:18:32.391Z,85.4
2018-05-12T01:19:33.061Z,85.4
2018-05-12T01:20:33.726Z,85.3
2018-05-12T01:21:34.395Z,85.5
2018-05-12T01:22:35.063Z,85.2
2018-05-12T01:23:35.729Z,85.3
2018-05-12T01:24:36.397Z,85.5
2018-05-12T01:25:37.065Z,85.2
2018-05-12T01:26:37.734Z,85.3
2018-05-12T01:27:38.405Z,85.7
2018-05-12T01:28:39.075Z,86.1
2018-05-12T01:29:39.743Z,85.8
2018-05-12T01:30:40.411Z,86.2
2018-05-12T01:31:41.078Z,86.3
2018-05-12T01:32:41.746Z,86.3
2018-05-12T01:33:42.416Z,85.9
2018-05-12T01:34:43.084Z,85.9
2018-05-12T01:35:43.753Z,85.9
2018-05-12T01:36:44.422Z,85.9
2018-05-12T01:37:45.092Z,86.3
2018-05-12T01:38:45.810Z,86.4
2018-05-12T01:39:46.481Z,86.4
2018-05-12T01:40:47.144Z,86.4
2018-05-12T01:41:47.813Z,86.4
2018-05-12T01:42:48.483Z,86.4
2018-05-12T01:43:49.151Z,86.4
2018-05-12T01:44:49.819Z,86.8
2018-05-12T01:45:50.486Z,86.5
2018-05-12T01:46:51.157Z,86.3
2018-05-12T01:47:51.822Z,86.8
2018-05-12T01:48:52.494Z,86.7
2018-05-12T01:49:53.161Z,87.0
2018-05-12T01:50:53.829Z,87.0
2018-05-12T01:51:54.497Z,86.7
2018-05-12T01:52:55.165Z,86.8
2018-05-12T01:53:55.872Z,87.4
2018-05-12T01:54:56.540Z,87.1
2018-05-12T01:55:57.207Z,87.2
2018-05-12T01:56:57.876Z,87.0
2018-05-12T01:57:58.544Z,87.7
2018-05-12T01:58:59.262Z,87.4
2018-05-12T01:59:59.880Z,87.4
2018-05-12T02:01:00.551Z,87.4
2018-05-12T02:02:01.218Z,87.4
2018-05-12T02:03:01.887Z,87.7
2018-05-12T02:04:02.556Z,87.3
2018-05-12T02:05:03.226Z,87.8
2018-05-12T02:06:03.891Z,87.4
2018-05-12T02:07:04.560Z,87.5
2018-05-12T02:08:05.227Z,88.0
2018-05-12T02:09:05.947Z,88.1
2018-05-12T02:10:06.615Z,88.2
2018-05-12T02:11:07.282Z,88.2
2018-05-12T02:12:07.953Z,88.1
2018-05-12T02:13:08.654Z,88.1
2018-05-12T02:14:09.321Z,88.0
2018-05-12T02:15:09.989Z,87.8
2018-05-12T02:16:10.657Z,87.8
2018-05-12T02:17:11.326Z,88.3
2018-05-12T02:18:11.995Z,88.2
2018-05-12T02:19:12.664Z,87.8
2018-05-12T02:20:13.337Z,88.2
2018-05-12T02:21:14.000Z,87.8
2018-05-12T02:22:14.668Z,87.9
2018-05-12T02:23:15.336Z,88.0
2018-05-12T02:24:16.004Z,88.0
2018-05-12T02:25:16.710Z,88.0
2018-05-12T02:26:17.379Z,88.0
2018-05-12T02:27:18.048Z,88.0
2018-05-12T02:28:18.715Z,88.4
2018-05-12T02:29:19.383Z,88.1
2018-05-12T02:30:20.157Z,88.2
2018-05-12T02:31:20.719Z,88.5
2018-05-12T02:32:21.426Z,88.6
2018-05-12T02:33:22.093Z,88.8
2018-05-12T02:34:22.761Z,88.5
2018-05-12T02:35:23.429Z,88.6
2018-05-12T02:36:24.096Z,88.4
2018-05-12T02:37:24.801Z,88.7
2018-05-12T02:38:25.472Z,88.8
2018-05-12T02:39:26.187Z,88.9
2018-05-12T02:40:26.857Z,88.7
2018-05-12T02:41:27.527Z,89.5
2018-05-12T02:42:28.193Z,89.3
2018-05-12T02:43:28.861Z,89.7
2018-05-12T02:44:29.578Z,89.6
2018-05-12T02:45:30.247Z,89.5
2018-05-12T02:46:30.916Z,90.1
2018-05-12T02:47:31.583Z,90.0
2018-05-12T02:48:32.251Z,90.6
2018-05-12T02:49:32.918Z,90.4
2018-05-12T02:50:33.585Z,90.7
2018-05-12T02:51:34.254Z,90.3
2018-05-12T02:52:34.920Z,90.2
2018-05-12T02:53:35.590Z,90.7
2018-05-12T02:54:36.263Z,90.5
2018-05-12T02:55:36.970Z,90.5
2018-05-12T02:56:37.636Z,90.4
2018-05-12T02:57:38.305Z,90.6
2018-05-12T02:58:38.972Z,91.0
2018-05-12T02:59:39.641Z,90.9
2018-05-12T03:00:40.308Z,90.6
2018-05-12T03:01:40.977Z,90.7
2018-05-12T03:02:41.645Z,90.7
2018-05-12T03:03:42.312Z,90.7
2018-05-12T03:04:42.981Z,90.7
2018-05-12T03:05:43.649Z,91.2
2018-05-12T03:06:44.317Z,90.7
2018-05-12T03:07:44.984Z,91.0
2018-05-12T03:08:45.653Z,90.9
2018-05-12T03:09:46.320Z,91.5
2018-05-12T03:10:46.990Z,91.1
2018-05-12T03:11:47.659Z,91.3
2018-05-12T03:12:48.329Z,91.5
2018-05-12T03:13:49.009Z,91.3
2018-05-12T03:14:49.707Z,91.1
2018-05-12T03:15:50.373Z,91.2
2018-05-12T03:16:51.041Z,91.2
2018-05-12T03:17:51.710Z,91.3
2018-05-12T03:18:52.379Z,91.3
2018-05-12T03:19:53.049Z,91.6
2018-05-12T03:20:53.718Z,91.3
2018-05-12T03:21:54.389Z,91.2
2018-05-12T03:22:55.055Z,91.2
2018-05-12T03:23:55.725Z,92.0
2018-05-12T03:24:56.399Z,91.8
2018-05-12T03:25:57.065Z,92.2
2018-05-12T03:26:57.733Z,92.4
2018-05-12T03:27:58.402Z,92.1
2018-05-12T03:28:59.072Z,92.1
2018-05-12T03:29:59.742Z,92.5
2018-05-12T03:31:00.411Z,92.3
2018-05-12T03:32:01.080Z,92.6
2018-05-12T03:33:01.747Z,92.4
2018-05-12T03:34:02.415Z,93.1
2018-05-12T03:35:03.085Z,92.7
2018-05-12T03:36:03.796Z,93.1
2018-05-12T03:37:04.467Z,92.8
2018-05-12T03:38:05.137Z,92.9
2018-05-12T03:39:05.806Z,92.9
2018-05-12T03:40:06.479Z,93.1
2018-05-12T03:41:07.149Z,93.3
2018-05-12T03:42:07.817Z,93.5
2018-05-12T03:43:08.487Z,93.8
2018-05-12T03:44:09.156Z,93.6
2018-05-12T03:45:09.874Z,93.9
2018-05-12T03:46:10.545Z,93.7
2018-05-12T03:47:11.214Z,93.7
2018-05-12T03:48:11.886Z,93.9
2018-05-12T03:49:12.557Z,94.2
2018-05-12T03:50:13.227Z,94.6
2018-05-12T03:51:13.900Z,94.3
2018-05-12T03:52:14.606Z,94.2
2018-05-12T03:53:15.278Z,94.3
2018-05-12T03:54:15.950Z,93.9
2018-05-12T03:55:16.620Z,94.5
2018-05-12T03:56:17.291Z,94.4
2018-05-12T03:57:17.967Z,94.3
2018-05-12T03:58:18.633Z,94.8
2018-05-12T03:59:19.341Z,94.8
2018-05-12T04:00:20.011Z,94.8
2018-05-12T04:01:20.681Z,95.4
2018-05-12T04:02:21.354Z,95.4
2018-05-12T04:03:22.026Z,94.9
2018-05-12T04:04:22.696Z,95.4
2018-05-12T04:05:23.368Z,95.3
2018-05-12T04:06:24.040Z,95.4
2018-05-12T04:07:24.709Z,96.0
2018-05-12T04:08:25.381Z,95.5
2018-05-12T04:09:26.089Z,96.0
2018-05-12T04:10:26.762Z,95.6
2018-05-12T04:11:27.434Z,95.7
2018-05-12T04:12:28.102Z,95.7
2018-05-12T04:13:28.771Z,95.4
2018-05-12T04:14:29.443Z,96.0
2018-05-12T04:15:30.114Z,96.2
2018-05-12T04:16:30.784Z,95.7
2018-05-12T04:17:31.456Z,96.1
2018-05-12T04:18:32.128Z,95.9
2018-05-12T04:19:32.798Z,95.9
2018-05-12T04:20:33.468Z,96.0
2018-05-12T04:21:34.141Z,96.0
2018-05-12T04:22:34.811Z,95.9
2018-05-12T04:23:35.482Z,96.0
2018-05-12T04:24:36.153Z,95.7
2018-05-12T04:25:36.832Z,95.9
2018-05-12T04:26:37.536Z,95.6
2018-05-12T04:27:38.206Z,95.3
2018-05-12T04:28:38.878Z,95.0
2018-05-12T04:29:39.550Z,95.1
2018-05-12T04:30:40.218Z,95.6
2018-05-12T04:31:40.888Z,94.7
2018-05-12T04:32:41.561Z,94.7
2018-05-12T04:33:42.233Z,94.2
2018-05-12T04:34:42.903Z,94.7
2018-05-12T04:35:43.579Z,93.9
2018-05-12T04:36:44.245Z,94.1
2018-05-12T04:37:44.916Z,93.9
2018-05-12T04:38:45.585Z,94.3
2018-05-12T04:39:46.259Z,93.9
2018-05-12T04:40:46.930Z,93.4
2018-05-12T04:41:47.602Z,93.6
2018-05-12T04:42:48.274Z,93.2
2018-05-12T04:43:48.948Z,93.0
2018-05-12T04:44:49.619Z,93.0
2018-05-12T04:45:50.291Z,92.7
2018-05-12T04:46:51.002Z,92.9
2018-05-12T04:47:51.676Z,92.7
2018-05-12T04:48:52.347Z,92.3
2018-05-12T04:49:53.020Z,92.1
2018-05-12T04:50:53.692Z,92.3
2018-05-12T04:51:54.363Z,91.9
2018-05-12T04:52:55.034Z,92.1
2018-05-12T04:53:55.706Z,91.8
2018-05-12T04:54:56.378Z,92.3
2018-05-12T04:55:57.049Z,91.9
2018-05-12T04:56:57.720Z,91.9
2018-05-12T04:57:58.393Z,92.4
2018-05-12T04:58:59.063Z,91.8
2018-05-12T04:59:59.734Z,91.4
2018-05-12T05:01:00.414Z,91.5
2018-05-12T05:02:01.118Z,91.5
2018-05-12T05:03:01.790Z,91.6
2018-05-12T05:04:02.460Z,91.1
2018-05-12T05:05:03.133Z,91.3
2018-05-12T05:06:03.805Z,91.5
2018-05-12T05:07:04.475Z,91.5
2018-05-12T05:08:05.146Z,91.4
2018-05-12T05:09:05.822Z,91.3
2018-05-12T05:10:06.493Z,91.4
2018-05-12T05:11:07.164Z,91.3
2018-05-12T05:12:07.835Z,90.9
2018-05-12T05:13:08.506Z,90.8
2018-05-12T05:14:09.177Z,91.5
2018-05-12T05:15:09.952Z,91.0
2018-05-12T05:16:10.562Z,91.1
2018-05-12T05:17:11.230Z,90.8
2018-05-12T05:18:11.906Z,90.8
2018-05-12T05:19:12.574Z,90.8
2018-05-12T05:20:13.249Z,91.1
2018-05-12T05:21:13.976Z,90.8
2018-05-12T05:22:14.592Z,90.5
2018-05-12T05:23:15.264Z,90.3
2018-05-12T05:24:15.937Z,90.6
2018-05-12T05:25:16.608Z,90.4
2018-05-12T05:26:17.286Z,90.6
2018-05-12T05:27:17.951Z,90.6
2018-05-12T05:28:18.651Z,90.0
2018-05-12T05:29:19.324Z,90.4
2018-05-12T05:30:19.997Z,89.7
2018-05-12T05:31:20.667Z,90.0
2018-05-12T05:32:21.338Z,90.4
2018-05-12T05:33:22.011Z,90.2
2018-05-12T05:34:22.686Z,90.1
2018-05-12T05:35:23.355Z,89.7
2018-05-12T05:36:24.030Z,89.7
2018-05-12T05:37:24.700Z,89.7
2018-05-12T05:38:25.372Z,89.7
2018-05-12T05:39:26.041Z,89.6
2018-05-12T05:40:26.714Z,89.8
2018-05-12T05:41:27.388Z,89.6
2018-05-12T05:42:28.062Z,89.0
2018-05-12T05:43:28.734Z,89.4
2018-05-12T05:44:29.410Z,89.3
2018-05-12T05:45:30.117Z,89.3
2018-05-12T05:46:30.794Z,89.1
2018-05-12T05:47:31.462Z,89.5
2018-05-12T05:48:32.136Z,89.5
2018-05-12T05:49:32.807Z,89.0
2018-05-12T05:50:33.481Z,88.8
2018-05-12T05:51:34.154Z,88.6
2018-05-12T05:52:34.826Z,88.9
2018-05-12T05:53:35.501Z,88.6
2018-05-12T05:54:36.173Z,88.9
2018-05-12T05:55:36.886Z,88.1
2018-05-12T05:56:37.559Z,87.6
2018-05-12T05:57:38.233Z,87.6
2018-05-12T05:58:38.931Z,87.7
2018-05-12T05:59:39.582Z,87.5
2018-05-12T06:00:40.251Z,87.5
2018-05-12T06:01:40.925Z,87.2
2018-05-12T06:02:41.602Z,86.9
2018-05-12T06:03:42.278Z,87.2
2018-05-12T06:04:42.949Z,86.9
2018-05-12T06:05:43.622Z,86.7
2018-05-12T06:06:44.351Z,86.5
2018-05-12T06:07:44.969Z,86.6
2018-05-12T06:08:45.647Z,86.5
2018-05-12T06:09:46.317Z,86.3
2018-05-12T06:10:46.989Z,85.9
2018-05-12T06:11:47.666Z,85.6
2018-05-12T06:12:48.340Z,85.6
2018-05-12T06:13:49.019Z,84.9
2018-05-12T06:14:49.691Z,84.8
2018-05-12T06:15:50.365Z,84.9
2018-05-12T06:16:51.080Z,84.7
2018-05-12T06:17:51.751Z,84.8
2018-05-12T06:18:52.426Z,84.3
2018-05-12T06:19:53.101Z,84.3
2018-05-12T06:20:53.776Z,83.9
2018-05-12T06:21:54.451Z,83.6
2018-05-12T06:22:55.125Z,82.8
2018-05-12T06:23:55.800Z,83.1
2018-05-12T06:24:56.476Z,82.8
2018-05-12T06:25:57.150Z,81.9
2018-05-12T06:26:57.827Z,81.4
2018-05-12T06:27:58.555Z,79.6
2018-05-12T06:28:59.181Z,77.6
2018-05-12T06:29:59.896Z,75.4
2018-05-12T06:31:00.571Z,74.2
2018-05-12T06:32:01.248Z,73.1
2018-05-12T06:33:01.925Z,72.3
2018-05-12T06:34:02.603Z,70.9
2018-05-12T06:35:03.280Z,69.0
2018-05-12T06:36:03.957Z,68.6
2018-05-12T06:37:04.635Z,67.4
2018-05-12T06:38:05.312Z,66.0
2018-05-12T06:39:05.991Z,65.4
2018-05-12T06:40:06.669Z,64.5
2018-05-12T06:41:07.347Z,64.4
2018-05-12T06:42:08.025Z,63.0
2018-05-12T06:43:08.706Z,61.8
2018-05-12T06:44:09.384Z,59.9
2018-05-12T06:45:10.065Z,59.1
2018-05-12T06:46:10.742Z,58.0
2018-05-12T06:47:11.420Z,57.2
2018-05-12T06:48:12.101Z,56.5
2018-05-12T06:49:12.781Z,54.8
2018-05-12T06:50:13.497Z,54.1
2018-05-12T06:51:14.181Z,52.8
2018-05-12T06:52:14.856Z,51.9
2018-05-12T06:53:15.574Z,50.7
2018-05-12T06:54:16.256Z,49.9
2018-05-12T06:55:16.938Z,49.2
2018-05-12T06:56:17.655Z,48.6
2018-05-12T06:57:18.335Z,48.2
2018-05-12T06:58:19.016Z,47.1
2018-05-12T06:59:19.699Z,46.4
2018-05-12T07:00:20.380Z,46.5
2018-05-12T07:01:21.067Z,46.1
2018-05-12T07:02:21.742Z,45.3
2018-05-12T07:03:22.424Z,45.2
2018-05-12T07:04:23.108Z,44.2
2018-05-12T07:05:23.793Z,44.7
2018-05-12T07:06:24.514Z,44.5
2018-05-12T07:07:25.194Z,43.9
2018-05-12T07:08:25.879Z,43.3
2018-05-12T07:09:26.563Z,42.6
2018-05-12T07:10:27.244Z,42.1
2018-05-12T07:11:27.926Z,41.7
2018-05-12T07:12:28.610Z,41.7
2018-05-12T07:13:29.294Z,41.2
2018-05-12T07:14:29.977Z,41.0
2018-05-12T07:15:30.662Z,40.8
2018-05-12T07:16:31.344Z,40.5
2018-05-12T07:17:32.068Z,39.8
2018-05-12T07:18:32.752Z,39.4
2018-05-12T07:19:33.531Z,39.7
2018-05-12T07:20:34.156Z,39.6
2018-05-12T07:21:34.841Z,40.0
2018-05-12T07:22:35.523Z,39.8
2018-05-12T07:23:36.208Z,39.3
2018-05-12T07:24:36.892Z,38.5
2018-05-12T07:25:37.576Z,38.5
2018-05-12T07:26:38.260Z,37.7
2018-05-12T07:27:39.034Z,37.1
2018-05-12T07:28:39.628Z,36.6
2018-05-12T07:29:40.384Z,36.5
2018-05-12T07:30:40.996Z,36.7
2018-05-12T07:31:41.684Z,35.7
2018-05-12T07:32:42.367Z,35.8
2018-05-12T07:33:43.049Z,35.7
2018-05-12T07:34:43.734Z,35.6
2018-05-12T07:35:44.455Z,36.2
2018-05-12T07:36:45.140Z,36.5
2018-05-12T07:37:45.914Z,36.4
2018-05-12T07:38:46.594Z,36.2
2018-05-12T07:39:47.278Z,35.7
2018-05-12T07:40:47.963Z,36.5
2018-05-12T07:41:48.647Z,36.5
2018-05-12T07:42:49.332Z,36.4
2018-05-12T07:43:50.016Z,35.6
2018-05-12T07:44:50.699Z,35.8
2018-05-12T07:45:51.384Z,35.8
2018-05-12T07:46:52.073Z,35.7
2018-05-12T07:47:52.754Z,35.3
2018-05-12T07:48:53.439Z,35.2
2018-05-12T07:49:54.123Z,35.2
2018-05-12T07:50:54.806Z,34.9
2018-05-12T07:51:55.494Z,34.7
2018-05-12T07:52:56.176Z,34.0
2018-05-12T07:53:56.871Z,34.0
2018-05-12T07:54:57.555Z,33.8
2018-05-12T07:55:58.242Z,33.6
2018-05-12T07:56:59.003Z,33.3
2018-05-12T07:57:59.611Z,33.3
2018-05-12T07:59:00.295Z,33.3
2018-05-12T08:00:00.982Z,32.8
2018-05-12T08:01:01.670Z,32.0
2018-05-12T08:02:02.352Z,32.0
2018-05-12T08:03:03.073Z,32.2
2018-05-12T08:04:03.758Z,32.0
2018-05-12T08:05:04.482Z,32.1
2018-05-12T08:06:05.169Z,32.2
2018-05-12T08:07:05.851Z,32.5
2018-05-12T08:08:06.536Z,32.5
2018-05-12T08:09:07.220Z,32.6
2018-05-12T08:10:07.908Z,32.6
2018-05-12T08:11:08.634Z,32.5
2018-05-12T08:12:09.319Z,32.5
2018-05-12T08:13:10.006Z,32.3
2018-05-12T08:14:10.686Z,33.0
2018-05-12T08:15:11.372Z,33.2
2018-05-12T08:16:12.056Z,32.4
2018-05-12T08:17:12.741Z,32.4
2018-05-12T08:18:13.425Z,32.6
2018-05-12T08:19:14.110Z,33.4
2018-05-12T08:20:14.794Z,34.0
2018-05-12T08:21:15.478Z,34.2
2018-05-12T08:22:16.163Z,33.8
2018-05-12T08:23:16.848Z,34.5
2018-05-12T08:24:17.568Z,35.3
2018-05-12T08:25:18.260Z,35.6
2018-05-12T08:26:18.940Z,35.7
2018-05-12T08:27:19.625Z,35.7
2018-05-12T08:28:20.310Z,36.2
2018-05-12T08:29:20.998Z,36.2
2018-05-12T08:30:21.681Z,36.2
2018-05-12T08:31:22.364Z,35.7
2018-05-12T08:32:23.050Z,35.1
2018-05-12T08:33:23.734Z,34.7
2018-05-12T08:34:24.419Z,35.1
2018-05-12T08:35:25.103Z,34.7
2018-05-12T08:36:25.788Z,34.4
2018-05-12T08:37:26.473Z,34.2
2018-05-12T08:38:27.157Z,33.9
2018-05-12T08:39:27.842Z,33.3
2018-05-12T08:40:28.597Z,33.2
2018-05-12T08:41:29.211Z,33.2
2018-05-12T08:42:29.896Z,33.3
2018-05-12T08:43:30.581Z,33.7
2018-05-12T08:44:31.267Z,34.1
2018-05-12T08:45:31.951Z,33.7
2018-05-12T08:46:32.635Z,33.8
2018-05-12T08:47:33.320Z,33.3
2018-05-12T08:48:34.004Z,33.4
2018-05-12T08:49:34.689Z,33.3
2018-05-12T08:50:35.378Z,33.3
2018-05-12T08:51:36.059Z,33.8
2018-05-12T08:52:36.743Z,34.1
2018-05-12T08:53:37.426Z,33.8
2018-05-12T08:54:38.111Z,33.8
2018-05-12T08:55:38.809Z,33.2
2018-05-12T08:56:39.482Z,33.1
2018-05-12T08:57:40.165Z,33.4
2018-05-12T08:58:40.852Z,33.5
2018-05-12T08:59:41.537Z,33.4
2018-05-12T09:00:42.221Z,32.8
2018-05-12T09:01:42.991Z,32.4
2018-05-12T09:02:43.622Z,32.1
2018-05-12T09:03:44.307Z,32.0
2018-05-12T09:04:44.996Z,31.3
2018-05-12T09:05:45.677Z,31.4
2018-05-12T09:06:46.366Z,32.0
2018-05-12T09:07:47.047Z,32.0
2018-05-12T09:08:47.735Z,31.7
2018-05-12T09:09:48.420Z,31.9
2018-05-12T09:10:49.101Z,32.0
2018-05-12T09:11:49.787Z,31.5
2018-05-12T09:12:50.472Z,32.2
2018-05-12T09:13:51.155Z,32.4
2018-05-12T09:14:51.842Z,32.6
2018-05-12T09:15:52.525Z,32.6
2018-05-12T09:16:53.211Z,32.2
2018-05-12T09:17:53.895Z,32.2
2018-05-12T09:18:54.580Z,33.0
2018-05-12T09:19:55.305Z,32.6
2018-05-12T09:20:55.990Z,32.3
2018-05-12T09:21:56.675Z,32.7
2018-05-12T09:22:57.398Z,32.0
2018-05-12T09:23:58.083Z,32.8
2018-05-12T09:24:58.768Z,33.2
2018-05-12T09:25:59.454Z,33.3
2018-05-12T09:27:00.175Z,33.2
2018-05-12T09:28:00.860Z,33.9
2018-05-12T09:29:01.549Z,34.8
2018-05-12T09:30:02.233Z,35.2
2018-05-12T09:31:02.920Z,35.1
2018-05-12T09:32:03.602Z,35.5
2018-05-12T09:33:04.285Z,35.3
2018-05-12T09:34:04.967Z,35.2
2018-05-12T09:35:05.653Z,35.5
2018-05-12T09:36:06.380Z,35.4
2018-05-12T09:37:07.186Z,35.3
2018-05-12T09:38:07.813Z,35.8
2018-05-12T09:39:08.546Z,36.4
2018-05-12T09:40:09.230Z,36.3
2018-05-12T09:41:09.914Z,36.4
2018-05-12T09:42:10.599Z,36.3
2018-05-12T09:43:11.323Z,36.3
2018-05-12T09:44:12.005Z,37.6
2018-05-12T09:45:12.689Z,39.2
2018-05-12T09:46:13.371Z,41.4
2018-05-12T09:47:14.056Z,41.7
2018-05-12T09:48:14.739Z,41.7
2018-05-12T09:49:15.421Z,41.9
2018-05-12T09:50:16.104Z,41.4
2018-05-12T09:51:16.787Z,40.6
2018-05-12T09:52:17.518Z,40.2
2018-05-12T09:53:18.155Z,39.4
2018-05-12T09:54:18.844Z,38.9
2018-05-12T09:55:19.522Z,38.9
2018-05-12T09:56:20.204Z,37.9
2018-05-12T09:57:20.888Z,38.6
2018-05-12T09:58:21.569Z,39.2
2018-05-12T09:59:22.254Z,39.5
2018-05-12T10:00:22.936Z,40.2
2018-05-12T10:01:23.618Z,39.2
2018-05-12T10:02:24.300Z,39.4
2018-05-12T10:03:24.996Z,39.1
2018-05-12T10:04:25.670Z,39.0
2018-05-12T10:05:26.391Z,39.0
2018-05-12T10:06:27.112Z,39.3
2018-05-12T10:07:27.795Z,39.4
2018-05-12T10:08:28.479Z,39.5
2018-05-12T10:09:29.160Z,39.5
2018-05-12T10:10:29.845Z,40.2
2018-05-12T10:11:30.530Z,41.0
2018-05-12T10:12:31.213Z,41.4
2018-05-12T10:13:31.898Z,41.2
2018-05-12T10:14:32.580Z,41.1
2018-05-12T10:15:33.269Z,42.2
2018-05-12T10:16:33.948Z,41.9
2018-05-12T10:17:34.630Z,42.7
2018-05-12T10:18:35.314Z,42.8
2018-05-12T10:19:35.996Z,42.8
2018-05-12T10:20:36.680Z,43.5
2018-05-12T10:21:37.363Z,43.8
2018-05-12T10:22:38.049Z,43.2
2018-05-12T10:23:38.734Z,44.0
2018-05-12T10:24:39.413Z,44.5
2018-05-12T10:25:40.097Z,44.5
2018-05-12T10:26:40.780Z,45.0
2018-05-12T10:27:41.461Z,46.1
2018-05-12T10:28:42.195Z,46.3
2018-05-12T10:29:42.825Z,46.5
2018-05-12T10:30:43.507Z,47.7
2018-05-12T10:31:44.191Z,48.5
2018-05-12T10:32:44.872Z,49.2
2018-05-12T10:33:45.554Z,48.5
2018-05-12T10:34:46.236Z,48.6
2018-05-12T10:35:46.918Z,49.0
2018-05-12T10:36:47.603Z,49.8
2018-05-12T10:37:48.284Z,50.3
2018-05-12T10:38:49.067Z,51.1
2018-05-12T10:39:49.647Z,51.0
2018-05-12T10:40:50.329Z,50.9
2018-05-12T10:41:51.012Z,51.9
2018-05-12T10:42:51.693Z,50.9
2018-05-12T10:43:52.375Z,51.3
2018-05-12T10:44:53.153Z,50.6
2018-05-12T10:45:53.769Z,51.6
2018-05-12T10:46:54.451Z,53.0
2018-05-12T10:47:55.131Z,52.9
2018-05-12T10:48:55.815Z,53.3
2018-05-12T10:49:56.498Z,53.9
2018-05-12T10:50:57.220Z,54.2
2018-05-12T10:51:57.895Z,53.3
2018-05-12T10:52:58.575Z,53.6
2018-05-12T10:53:59.255Z,53.0
2018-05-12T10:54:59.975Z,53.6
2018-05-12T10:56:00.656Z,53.5
2018-05-12T10:57:01.380Z,53.5
2018-05-12T10:58:02.059Z,52.9
2018-05-12T10:59:02.739Z,50.9
2018-05-12T11:00:03.419Z,50.3
2018-05-12T11:01:04.102Z,50.9
2018-05-12T11:02:04.781Z,51.6
2018-05-12T11:03:05.462Z,51.8
2018-05-12T11:04:06.143Z,52.0
2018-05-12T11:05:06.822Z,51.9
2018-05-12T11:06:07.504Z,52.3
2018-05-12T11:07:08.185Z,52.1
2018-05-12T11:08:08.864Z,53.2
2018-05-12T11:09:09.545Z,52.9
2018-05-12T11:10:10.228Z,52.3
2018-05-12T11:11:10.906Z,50.6
2018-05-12T11:12:11.588Z,49.8
2018-05-12T11:13:12.268Z,49.5
2018-05-12T11:14:12.950Z,48.5
2018-05-12T11:15:13.629Z,48.7
2018-05-12T11:16:14.372Z,49.6
2018-05-12T11:17:14.992Z,50.3
2018-05-12T11:18:15.712Z,50.5
2018-05-12T11:19:16.392Z,51.2
2018-05-12T11:20:17.165Z,51.3
2018-05-12T11:21:17.754Z,50.9
2018-05-12T11:22:18.434Z,50.5
2018-05-12T11:23:19.116Z,50.7
2018-05-12T11:24:19.796Z,50.9
2018-05-12T11:25:20.482Z,50.6
2018-05-12T11:26:21.157Z,50.4
2018-05-12T11:27:21.840Z,49.6
2018-05-12T11:28:22.525Z,49.6
2018-05-12T11:29:23.204Z,49.8
2018-05-12T11:30:23.885Z,49.8
2018-05-12T11:31:24.565Z,49.7
2018-05-12T11:32:25.246Z,50.5
2018-05-12T11:33:25.929Z,50.3
2018-05-12T11:34:26.609Z,50.6
2018-05-12T11:35:27.291Z,50.6
2018-05-12T11:36:27.971Z,50.8
2018-05-12T11:37:28.652Z,50.5
2018-05-12T11:38:29.369Z,49.6
2018-05-12T11:39:30.053Z,50.7
2018-05-12T11:40:30.773Z,50.7
2018-05-12T11:41:31.454Z,51.4
2018-05-12T11:42:32.135Z,50.1
2018-05-12T11:43:32.815Z,50.6
2018-05-12T11:44:33.618Z,50.4
2018-05-12T11:45:34.179Z,50.0
2018-05-12T11:46:34.859Z,49.0
2018-05-12T11:47:35.541Z,49.8
2018-05-12T11:48:36.221Z,50.0
2018-05-12T11:49:36.906Z,50.5
2018-05-12T11:50:37.587Z,50.9
2018-05-12T11:51:38.304Z,50.7
2018-05-12T11:52:38.986Z,50.9
2018-05-12T11:53:39.663Z,50.6
2018-05-12T11:54:40.343Z,50.3
2018-05-12T11:55:41.024Z,50.4
2018-05-12T11:56:41.706Z,50.5
2018-05-12T11:57:42.386Z,50.5
2018-05-12T11:58:43.068Z,49.8
2018-05-12T11:59:43.784Z,49.6
2018-05-12T12:00:44.464Z,49.9
2018-05-12T12:01:45.146Z,49.4
2018-05-12T12:02:45.827Z,49.8
2018-05-12T12:03:46.532Z,49.4
2018-05-12T12:04:47.189Z,49.8
2018-05-12T12:05:47.920Z,49.7
2018-05-12T12:06:48.601Z,49.0
2018-05-12T12:07:49.282Z,49.7
2018-05-12T12:08:49.963Z,49.7
2018-05-12T12:09:50.643Z,49.9
2018-05-12T12:10:51.326Z,50.2
2018-05-12T12:11:52.047Z,50.6
2018-05-12T12:12:52.729Z,50.4
2018-05-12T12:13:53.409Z,50.4
2018-05-12T12:14:54.093Z,50.0
2018-05-12T12:15:54.770Z,49.8
2018-05-12T12:16:55.452Z,49.9
2018-05-12T12:17:56.170Z,50.4
2018-05-12T12:18:56.850Z,50.9
2018-05-12T12:19:57.532Z,51.3
2018-05-12T12:20:58.212Z,50.9
2018-05-12T12:21:58.891Z,50.8
2018-05-12T12:22:59.571Z,50.6
2018-05-12T12:24:00.255Z,50.7
2018-05-12T12:25:00.935Z,50.8
2018-05-12T12:26:01.652Z,51.0
2018-05-12T12:27:02.339Z,51.0
2018-05-12T12:28:03.015Z,50.8
2018-05-12T12:29:03.695Z,49.8
2018-05-12T12:30:04.376Z,50.2
2018-05-12T12:31:05.055Z,50.2
2018-05-12T12:32:05.737Z,50.2
2018-05-12T12:33:06.417Z,50.4
2018-05-12T12:34:07.103Z,50.6
2018-05-12T12:35:07.782Z,51.1
2018-05-12T12:36:08.461Z,51.7
2018-05-12T12:37:09.141Z,51.9
2018-05-12T12:38:09.820Z,52.3
2018-05-12T12:39:10.501Z,51.9
2018-05-12T12:40:11.183Z,52.0
2018-05-12T12:41:11.863Z,52.2
2018-05-12T12:42:12.545Z,52.5
2018-05-12T12:43:13.225Z,52.5
2018-05-12T12:44:13.908Z,52.3
2018-05-12T12:45:14.587Z,51.9
2018-05-12T12:46:15.268Z,52.4
2018-05-12T12:47:15.950Z,52.2
2018-05-12T12:48:16.629Z,52.3
2018-05-12T12:49:17.310Z,52.3
2018-05-12T12:50:17.995Z,52.2
2018-05-12T12:51:18.672Z,51.8
2018-05-12T12:52:19.353Z,52.1
2018-05-12T12:53:20.034Z,51.8
2018-05-12T12:54:20.752Z,51.3
2018-05-12T12:55:21.431Z,51.6
2018-05-12T12:56:22.117Z,50.9
2018-05-12T12:57:22.833Z,51.3
2018-05-12T12:58:23.556Z,51.7
2018-05-12T12:59:24.193Z,51.0
2018-05-12T13:00:24.876Z,50.7
2018-05-12T13:01:25.604Z,51.0
2018-05-12T13:02:26.284Z,51.3
2018-05-12T13:03:26.966Z,52.0
2018-05-12T13:04:27.686Z,52.1
2018-05-12T13:05:28.365Z,52.1
2018-05-12T13:06:29.045Z,52.3
2018-05-12T13:07:29.728Z,51.2
2018-05-12T13:08:30.407Z,51.9
2018-05-12T13:09:31.088Z,52.0
2018-05-12T13:10:31.805Z,52.1
2018-05-12T13:11:32.486Z,51.9
2018-05-12T13:12:33.164Z,52.2
2018-05-12T13:13:33.847Z,51.9
2018-05-12T13:14:34.526Z,52.2
2018-05-12T13:15:35.207Z,52.3
2018-05-12T13:16:35.887Z,52.1
2018-05-12T13:17:36.566Z,52.2
2018-05-12T13:18:37.249Z,51.7
2018-05-12T13:19:37.929Z,52.0
2018-05-12T13:20:38.611Z,51.9
2018-05-12T13:21:39.346Z,52.0
2018-05-12T13:22:39.970Z,52.1
2018-05-12T13:23:40.653Z,52.9
2018-05-12T13:24:41.334Z,53.0
2018-05-12T13:25:42.016Z,52.6
2018-05-12T13:26:42.695Z,53.2
2018-05-12T13:27:43.376Z,52.9